Hai Yang Shi You 708 — BFDL — position and weather

sailwx.info

Track history (hours):
 
Tides and Currents Weather Stations Pressure Air Temp Water Temp Dewpoint Dewpoint Depression Visibility Wind Speed Wind Dir Waves Ship Positions

Hai Yang Shi You 708

Last reported at 2016-Feb-06 01:07 UTC. Time now 2016-Feb-06 09:21 UTC.
Position N 31°53' E 120°55'.

Length 105 m; draft 6.7 m.

Type: Other ship. MMSI: 413303010.

Date/timePositionNaut miles runAvg speedWind from/ knotsBaromVisibWave heightAir tempDewpointWater temp
2016-Feb-06 01:07N 31°53' E 120°55'0 0.0
2016-Feb-06 00:25N 31°53' E 120°55'0 0.0
2016-Feb-05 16:10N 31°53' E 120°55'0 0.0
2016-Feb-05 15:04N 31°53' E 120°55'0 0.0
2016-Feb-05 13:25N 31°53' E 120°55'0 0.0
2016-Feb-05 11:13N 31°53' E 120°55'0 0.0
2016-Feb-05 10:20N 31°53' E 120°55'3 4.0
2016-Feb-05 09:31N 31°50' E 120°56'8 8.6
2016-Feb-05 08:33N 31°46' E 121°04'1010.3
2016-Feb-05 07:33N 31°39' E 121°14'1110.6
2016-Feb-05 06:34N 31°32' E 121°22'10 9.5
2016-Feb-05 05:34N 31°25' E 121°31'7 6.8
2016-Feb-05 04:32N 31°22' E 121°38'9 2.9
2016-Feb-05 01:32N 31°22' E 121°48'0 0.0
2016-Feb-05 00:34N 31°22' E 121°48'0 0.0
2016-Feb-04 23:09N 31°22' E 121°48'0 0.0
2016-Feb-04 21:27N 31°22' E 121°48'0 0.0
2016-Feb-04 20:33N 31°22' E 121°48'0 0.0
2016-Feb-04 19:33N 31°22' E 121°48'0 0.0
2016-Feb-04 18:33N 31°22' E 121°48'0 0.0
2016-Feb-04 17:27N 31°22' E 121°48'0 0.0
2016-Feb-04 16:33N 31°22' E 121°48'0 0.0
2016-Feb-04 15:21N 31°22' E 121°48'0 0.0
2016-Feb-04 14:33N 31°22' E 121°48'0 0.0
2016-Feb-04 13:21N 31°22' E 121°48'0 0.0
2016-Feb-04 12:15N 31°22' E 121°48'0 0.0
2016-Feb-04 10:27N 31°22' E 121°48'0 0.0
2016-Feb-04 08:03N 31°22' E 121°48'0 0.0
2016-Feb-04 07:33N 31°22' E 121°48'0 0.0
2016-Feb-04 03:03N 31°22' E 121°48'0 0.0
2016-Feb-04 01:21N 31°22' E 121°48'0 0.0
2016-Feb-03 23:27N 31°22' E 121°48'0 0.0
2016-Feb-03 22:33N 31°22' E 121°48'0 0.0
2016-Feb-03 18:33N 31°22' E 121°48'0 0.0
2016-Feb-03 17:03N 31°22' E 121°48'0 0.0
2016-Feb-03 13:27N 31°22' E 121°48'0 0.0
2016-Feb-03 12:33N 31°22' E 121°48'0 0.0
2016-Feb-03 08:15N 31°22' E 121°48'0 0.0
2016-Feb-03 06:27N 31°22' E 121°48'0 0.0
2016-Feb-03 02:03N 31°22' E 121°48'0 0.0
2016-Feb-02 23:33N 31°22' E 121°48'0 0.0
2016-Feb-02 22:27N 31°22' E 121°48'0 0.0
2016-Feb-02 21:09N 31°22' E 121°48'0 0.0
2016-Feb-02 18:09N 31°22' E 121°48'0 0.0
2016-Feb-02 17:33N 31°22' E 121°48'0 0.0
2016-Feb-02 16:21N 31°22' E 121°48'0 0.0
2016-Feb-02 15:09N 31°22' E 121°48'0 0.0
2016-Feb-02 14:09N 31°22' E 121°48'0 0.0
2016-Feb-02 13:33N 31°22' E 121°48'0 0.0
2016-Feb-02 12:27N 31°22' E 121°48'0 0.0
2016-Feb-02 11:27N 31°22' E 121°48'0 0.0
2016-Feb-02 10:15N 31°22' E 121°48'0 0.0
2016-Feb-02 09:33N 31°22' E 121°48'0 0.0
2016-Feb-02 05:15N 31°22' E 121°48'0 0.0
2016-Feb-02 03:33N 31°22' E 121°48'0 0.0
2016-Feb-02 02:27N 31°22' E 121°48'0 0.0
2016-Feb-02 01:33N 31°22' E 121°48'0 0.0
2016-Feb-01 23:27N 31°22' E 121°48'0 0.0
2016-Feb-01 18:03N 31°22' E 121°48'0 0.0
2016-Feb-01 17:15N 31°22' E 121°48'0 0.0
2016-Feb-01 15:33N 31°22' E 121°48'0 0.0
2016-Feb-01 14:27N 31°22' E 121°48'0 0.0
2016-Feb-01 06:27N 31°22' E 121°48'0 0.0
2016-Feb-01 03:27N 31°22' E 121°48'0 0.0
2016-Feb-01 02:33N 31°22' E 121°48'0 0.0
2016-Feb-01 01:33N 31°22' E 121°48'0 0.0
2016-Feb-01 00:27N 31°22' E 121°48'0 0.0
2016-Jan-31 21:33N 31°22' E 121°48'0 0.0
2016-Jan-31 19:21N 31°22' E 121°48'0 0.0
2016-Jan-31 16:15N 31°22' E 121°48'0 0.0
2016-Jan-31 14:27N 31°22' E 121°48'0 0.0
2016-Jan-31 12:27N 31°22' E 121°48'0 0.0
2016-Jan-31 11:27N 31°22' E 121°48'0 0.0
2016-Jan-31 10:33N 31°22' E 121°48'0 0.0
2016-Jan-31 09:09N 31°22' E 121°48'0 0.0
2016-Jan-31 08:15N 31°22' E 121°48'0 0.0
2016-Jan-31 05:09N 31°22' E 121°48'0 0.0
2016-Jan-31 04:27N 31°22' E 121°48'0 0.0
2016-Jan-30 23:05N 31°22' E 121°48'0 0.0
2016-Jan-30 22:23N 31°22' E 121°48'0 0.0
2016-Jan-30 20:11N 31°22' E 121°48'0 0.0
2016-Jan-30 19:29N 31°22' E 121°48'0 0.0
2016-Jan-30 18:23N 31°22' E 121°48'0 0.0
2016-Jan-30 17:23N 31°22' E 121°48'0 0.0
2016-Jan-30 14:11N 31°22' E 121°48'0 0.0
2016-Jan-30 12:29N 31°22' E 121°48'0 0.0
2016-Jan-30 11:23N 31°22' E 121°48'0 0.0
2016-Jan-30 10:17N 31°22' E 121°48'0 0.0
2016-Jan-30 06:23N 31°22' E 121°48'0 0.0
2016-Jan-30 05:11N 31°22' E 121°48'0 0.0
2016-Jan-30 04:17N 31°22' E 121°48'0 0.0
2016-Jan-30 00:17N 31°22' E 121°48'0 0.0
2016-Jan-29 22:23N 31°22' E 121°48'0 0.0
2016-Jan-29 21:29N 31°22' E 121°48'0 0.0
2016-Jan-29 20:17N 31°22' E 121°48'0 0.0
2016-Jan-29 19:23N 31°22' E 121°48'0 0.0
2016-Jan-29 15:05N 31°22' E 121°48'0 0.0
2016-Jan-29 14:29N 31°22' E 121°48'0 0.0
2016-Jan-29 13:23N 31°22' E 121°48'0 0.0
2016-Jan-29 11:29N 31°22' E 121°48'0 0.0
2016-Jan-29 10:29N 31°22' E 121°48'0 0.0
2016-Jan-28 23:10N 31°21' E 121°48'5 7.4
2016-Jan-28 22:32N 31°17' E 121°50'88 3.9
2016-Jan-28 00:15N 29°59' E 122°36'7 9.3
2016-Jan-27 23:31N 29°52' E 122°34'10 9.8
2016-Jan-27 22:29N 29°42' E 122°31'1310.3
2016-Jan-27 21:12N 29°29' E 122°29'810.7
2016-Jan-27 20:29N 29°22' E 122°27'  
Track history (hours):
 
Tides and Currents Weather Stations Pressure Air Temp Water Temp Dewpoint Dewpoint Depression Visibility Wind Speed Wind Dir Waves Ship Positions

Hai Yang Shi You 708

Last reported at 2016-Feb-06 01:07 UTC. Time now 2016-Feb-06 09:21 UTC.
Position N 31°53' E 120°55'.

Length 105 m; draft 6.7 m.

Type: Other ship. MMSI: 413303010.

Date/timePositionNaut miles runAvg speedWind from/ knotsBaromVisibWave heightAir tempDewpointWater temp
2016-Feb-06 01:07N 31°53' E 120°55'0 0.0
2016-Feb-06 00:25N 31°53' E 120°55'0 0.0
2016-Feb-05 16:10N 31°53' E 120°55'0 0.0
2016-Feb-05 15:04N 31°53' E 120°55'0 0.0
2016-Feb-05 13:25N 31°53' E 120°55'0 0.0
2016-Feb-05 11:13N 31°53' E 120°55'0 0.0
2016-Feb-05 10:20N 31°53' E 120°55'3 4.0
2016-Feb-05 09:31N 31°50' E 120°56'8 8.6
2016-Feb-05 08:33N 31°46' E 121°04'1010.3
2016-Feb-05 07:33N 31°39' E 121°14'1110.6
2016-Feb-05 06:34N 31°32' E 121°22'10 9.5
2016-Feb-05 05:34N 31°25' E 121°31'7 6.8
2016-Feb-05 04:32N 31°22' E 121°38'9 2.9
2016-Feb-05 01:32N 31°22' E 121°48'0 0.0
2016-Feb-05 00:34N 31°22' E 121°48'0 0.0
2016-Feb-04 23:09N 31°22' E 121°48'0 0.0
2016-Feb-04 21:27N 31°22' E 121°48'0 0.0
2016-Feb-04 20:33N 31°22' E 121°48'0 0.0
2016-Feb-04 19:33N 31°22' E 121°48'0 0.0
2016-Feb-04 18:33N 31°22' E 121°48'0 0.0
2016-Feb-04 17:27N 31°22' E 121°48'0 0.0
2016-Feb-04 16:33N 31°22' E 121°48'0 0.0
2016-Feb-04 15:21N 31°22' E 121°48'0 0.0
2016-Feb-04 14:33N 31°22' E 121°48'0 0.0
2016-Feb-04 13:21N 31°22' E 121°48'0 0.0
2016-Feb-04 12:15N 31°22' E 121°48'0 0.0
2016-Feb-04 10:27N 31°22' E 121°48'0 0.0
2016-Feb-04 08:03N 31°22' E 121°48'0 0.0
2016-Feb-04 07:33N 31°22' E 121°48'0 0.0
2016-Feb-04 03:03N 31°22' E 121°48'0 0.0
2016-Feb-04 01:21N 31°22' E 121°48'0 0.0
2016-Feb-03 23:27N 31°22' E 121°48'0 0.0
2016-Feb-03 22:33N 31°22' E 121°48'0 0.0
2016-Feb-03 18:33N 31°22' E 121°48'0 0.0
2016-Feb-03 17:03N 31°22' E 121°48'0 0.0
2016-Feb-03 13:27N 31°22' E 121°48'0 0.0
2016-Feb-03 12:33N 31°22' E 121°48'0 0.0
2016-Feb-03 08:15N 31°22' E 121°48'0 0.0
2016-Feb-03 06:27N 31°22' E 121°48'0 0.0
2016-Feb-03 02:03N 31°22' E 121°48'0 0.0
2016-Feb-02 23:33N 31°22' E 121°48'0 0.0
2016-Feb-02 22:27N 31°22' E 121°48'0 0.0
2016-Feb-02 21:09N 31°22' E 121°48'0 0.0
2016-Feb-02 18:09N 31°22' E 121°48'0 0.0
2016-Feb-02 17:33N 31°22' E 121°48'0 0.0
2016-Feb-02 16:21N 31°22' E 121°48'0 0.0
2016-Feb-02 15:09N 31°22' E 121°48'0 0.0
2016-Feb-02 14:09N 31°22' E 121°48'0 0.0
2016-Feb-02 13:33N 31°22' E 121°48'0 0.0
2016-Feb-02 12:27N 31°22' E 121°48'0 0.0
2016-Feb-02 11:27N 31°22' E 121°48'0 0.0
2016-Feb-02 10:15N 31°22' E 121°48'0 0.0
2016-Feb-02 09:33N 31°22' E 121°48'0 0.0
2016-Feb-02 05:15N 31°22' E 121°48'0 0.0
2016-Feb-02 03:33N 31°22' E 121°48'0 0.0
2016-Feb-02 02:27N 31°22' E 121°48'0 0.0
2016-Feb-02 01:33N 31°22' E 121°48'0 0.0
2016-Feb-01 23:27N 31°22' E 121°48'0 0.0
2016-Feb-01 18:03N 31°22' E 121°48'0 0.0
2016-Feb-01 17:15N 31°22' E 121°48'0 0.0
2016-Feb-01 15:33N 31°22' E 121°48'0 0.0
2016-Feb-01 14:27N 31°22' E 121°48'0 0.0
2016-Feb-01 06:27N 31°22' E 121°48'0 0.0
2016-Feb-01 03:27N 31°22' E 121°48'0 0.0
2016-Feb-01 02:33N 31°22' E 121°48'0 0.0
2016-Feb-01 01:33N 31°22' E 121°48'0 0.0
2016-Feb-01 00:27N 31°22' E 121°48'0 0.0
2016-Jan-31 21:33N 31°22' E 121°48'0 0.0
2016-Jan-31 19:21N 31°22' E 121°48'0 0.0
2016-Jan-31 16:15N 31°22' E 121°48'0 0.0
2016-Jan-31 14:27N 31°22' E 121°48'0 0.0
2016-Jan-31 12:27N 31°22' E 121°48'0 0.0
2016-Jan-31 11:27N 31°22' E 121°48'0 0.0
2016-Jan-31 10:33N 31°22' E 121°48'0 0.0
2016-Jan-31 09:09N 31°22' E 121°48'0 0.0
2016-Jan-31 08:15N 31°22' E 121°48'0 0.0
2016-Jan-31 05:09N 31°22' E 121°48'0 0.0
2016-Jan-31 04:27N 31°22' E 121°48'0 0.0
2016-Jan-30 23:05N 31°22' E 121°48'0 0.0
2016-Jan-30 22:23N 31°22' E 121°48'0 0.0
2016-Jan-30 20:11N 31°22' E 121°48'0 0.0
2016-Jan-30 19:29N 31°22' E 121°48'0 0.0
2016-Jan-30 18:23N 31°22' E 121°48'0 0.0
2016-Jan-30 17:23N 31°22' E 121°48'0 0.0
2016-Jan-30 14:11N 31°22' E 121°48'0 0.0
2016-Jan-30 12:29N 31°22' E 121°48'0 0.0
2016-Jan-30 11:23N 31°22' E 121°48'0 0.0
2016-Jan-30 10:17N 31°22' E 121°48'0 0.0
2016-Jan-30 06:23N 31°22' E 121°48'0 0.0
2016-Jan-30 05:11N 31°22' E 121°48'0 0.0
2016-Jan-30 04:17N 31°22' E 121°48'0 0.0
2016-Jan-30 00:17N 31°22' E 121°48'0 0.0
2016-Jan-29 22:23N 31°22' E 121°48'0 0.0
2016-Jan-29 21:29N 31°22' E 121°48'0 0.0
2016-Jan-29 20:17N 31°22' E 121°48'0 0.0
2016-Jan-29 19:23N 31°22' E 121°48'0 0.0
2016-Jan-29 15:05N 31°22' E 121°48'0 0.0
2016-Jan-29 14:29N 31°22' E 121°48'0 0.0
2016-Jan-29 13:23N 31°22' E 121°48'0 0.0
2016-Jan-29 11:29N 31°22' E 121°48'0 0.0
2016-Jan-29 10:29N 31°22' E 121°48'0 0.0
2016-Jan-28 23:10N 31°21' E 121°48'5 7.4
2016-Jan-28 22:32N 31°17' E 121°50'88 3.9
2016-Jan-28 00:15N 29°59' E 122°36'7 9.3
2016-Jan-27 23:31N 29°52' E 122°34'10 9.8
2016-Jan-27 22:29N 29°42' E 122°31'1310.3
2016-Jan-27 21:12N 29°29' E 122°29'810.7
2016-Jan-27 20:29N 29°22' E 122°27'  

Dump ship's entire track history